createdAt,value
2019-06-07T00:02:51.566Z,18.57
2019-06-07T00:07:47.493Z,18.17
2019-06-07T00:12:43.411Z,16.60
2019-06-07T00:17:39.335Z,15.90
2019-06-07T00:22:35.244Z,16.07
2019-06-07T00:27:31.166Z,15.00
2019-06-07T00:32:27.110Z,16.27
2019-06-07T00:37:25.304Z,15.60
2019-06-07T00:42:23.737Z,17.80
2019-06-07T00:47:23.029Z,16.17
2019-06-07T00:53:07.641Z,17.20
2019-06-07T00:57:16.669Z,16.90
2019-06-07T01:02:14.605Z,16.37
2019-06-07T01:07:10.213Z,18.53
2019-06-07T01:12:06.131Z,15.57
2019-06-07T01:17:27.979Z,16.80
2019-06-07T01:22:16.440Z,14.93
2019-06-07T01:27:13.224Z,15.50
2019-06-07T01:32:09.148Z,15.40
2019-06-07T01:37:05.064Z,16.03
2019-06-07T01:42:01.031Z,16.87
2019-06-07T01:46:56.950Z,17.87
2019-06-07T01:51:53.830Z,16.23
2019-06-07T01:56:49.757Z,18.10
2019-06-07T02:01:45.674Z,19.40
2019-06-07T02:06:41.695Z,17.30
2019-06-07T02:11:37.657Z,15.77
2019-06-07T02:16:33.571Z,15.73
2019-06-07T02:21:33.442Z,14.90
2019-06-07T02:26:30.790Z,16.40
2019-06-07T02:31:27.796Z,14.83
2019-06-07T02:36:28.842Z,14.60
2019-06-07T02:41:25.774Z,16.90
2019-06-07T02:46:30.438Z,18.30
2019-06-07T02:51:23.687Z,15.50
2019-06-07T02:56:46.439Z,14.30
2019-06-07T03:01:17.597Z,15.27
2019-06-07T03:06:14.111Z,15.40
2019-06-07T03:11:11.217Z,14.20
2019-06-07T03:16:09.254Z,18.03
2019-06-07T03:21:07.568Z,14.57
2019-06-07T03:26:03.834Z,17.77
2019-06-07T03:31:02.594Z,15.17
2019-06-07T03:35:57.701Z,15.97
2019-06-07T03:40:53.676Z,16.50
2019-06-07T03:45:49.596Z,13.00
2019-06-07T03:50:45.572Z,15.97
2019-06-07T03:55:41.613Z,16.10
2019-06-07T04:00:42.715Z,15.53
2019-06-07T04:05:40.250Z,14.93
2019-06-07T04:10:53.417Z,15.90
2019-06-07T04:15:33.825Z,13.30
2019-06-07T04:20:32.527Z,15.00
2019-06-07T04:25:29.061Z,15.80
2019-06-07T04:30:43.711Z,14.47
2019-06-07T04:35:42.917Z,17.70
2019-06-07T04:40:42.545Z,16.50
2019-06-07T04:45:45.769Z,17.90
2019-06-07T04:50:40.439Z,17.50
2019-06-07T04:55:36.616Z,17.93
2019-06-07T05:00:49.827Z,15.70
2019-06-07T05:05:34.460Z,16.00
2019-06-07T05:10:35.702Z,16.67
2019-06-07T05:15:29.580Z,14.60
2019-06-07T05:20:25.517Z,14.03
2019-06-07T05:25:21.472Z,10.10
2019-06-07T05:35:30.699Z,8.27
2019-06-07T05:40:33.021Z,7.77
2019-06-07T05:45:38.142Z,7.43
2019-06-07T05:50:43.964Z,6.00
2019-06-07T05:55:30.787Z,8.10
2019-06-07T06:00:26.798Z,6.40
2019-06-07T06:05:33.205Z,5.97
2019-06-07T06:10:20.535Z,6.30
2019-06-07T06:15:16.748Z,6.17
2019-06-07T06:20:13.983Z,7.00
2019-06-07T06:25:31.760Z,8.70
2019-06-07T06:30:09.766Z,8.13
2019-06-07T06:35:06.591Z,10.23
2019-06-07T06:40:04.506Z,9.77
2019-06-07T06:45:00.424Z,12.30
2019-06-07T06:49:56.345Z,11.87
2019-06-07T06:55:00.071Z,11.53
2019-06-07T06:59:52.542Z,11.17
2019-06-07T07:04:48.762Z,9.63
2019-06-07T07:09:51.086Z,9.77
2019-06-07T07:14:47.038Z,10.20
2019-06-07T07:19:46.569Z,11.43
2019-06-07T07:24:40.263Z,9.70
2019-06-07T07:29:36.175Z,9.80
2019-06-07T07:34:36.647Z,9.13
2019-06-07T07:39:30.585Z,9.00
2019-06-07T07:44:26.572Z,6.73
2019-06-07T07:49:22.488Z,6.63
2019-06-07T07:54:18.404Z,6.10
2019-06-07T07:59:14.326Z,5.87
2019-06-07T08:04:10.245Z,6.20
2019-06-07T08:09:09.482Z,6.80
2019-06-07T08:14:05.383Z,6.80
2019-06-07T08:19:04.193Z,6.47
2019-06-07T08:24:03.575Z,8.00
2019-06-07T08:28:59.746Z,7.00
2019-06-07T08:33:57.037Z,7.50
2019-06-07T08:39:07.307Z,7.57
2019-06-07T08:44:00.724Z,8.03
2019-06-07T08:49:01.410Z,9.00
2019-06-07T08:54:20.578Z,9.13
2019-06-07T08:58:54.981Z,7.03
2019-06-07T09:03:49.743Z,7.20
2019-06-07T09:08:51.934Z,9.47
2019-06-07T09:13:49.444Z,6.80
2019-06-07T09:18:45.618Z,7.17
2019-06-07T09:23:41.737Z,6.03
2019-06-07T09:28:37.672Z,6.73
2019-06-07T09:33:33.570Z,5.13
2019-06-07T09:38:29.766Z,6.20
2019-06-07T09:49:09.225Z,4.63
2019-06-07T09:53:23.315Z,5.70
2019-06-07T10:03:22.105Z,3.30
2019-06-07T10:09:15.082Z,4.60
2019-06-07T10:13:12.809Z,4.20
2019-06-07T10:18:09.274Z,4.17
2019-06-07T10:23:05.786Z,3.90
2019-06-07T10:28:01.922Z,3.07
2019-06-07T10:32:57.805Z,2.87
2019-06-07T10:37:53.755Z,3.90
2019-06-07T10:42:49.741Z,3.60
2019-06-07T10:47:45.728Z,3.50
2019-06-07T10:52:41.772Z,3.47
2019-06-07T10:57:37.693Z,3.40
2019-06-07T11:02:33.636Z,3.80
2019-06-07T11:07:29.535Z,3.40
2019-06-07T11:12:25.451Z,3.57
2019-06-07T11:17:21.496Z,3.00
2019-06-07T11:22:18.586Z,2.80
2019-06-07T11:27:16.353Z,3.00
2019-06-07T11:32:12.629Z,2.70
2019-06-07T11:37:09.469Z,3.40
2019-06-07T11:42:07.782Z,3.10
2019-06-07T11:47:04.017Z,2.80
2019-06-07T11:51:59.959Z,2.23
2019-06-07T11:56:55.886Z,2.40
2019-06-07T12:01:51.805Z,2.83
2019-06-07T12:06:47.823Z,2.97
2019-06-07T12:11:43.859Z,2.30
2019-06-07T12:16:40.832Z,2.60
2019-06-07T12:21:36.755Z,2.40
2019-06-07T12:26:34.250Z,2.17
2019-06-07T12:31:30.275Z,2.33
2019-06-07T12:36:26.205Z,2.20
2019-06-07T12:41:22.433Z,4.00
2019-06-07T12:46:23.101Z,2.40
2019-06-07T12:51:17.217Z,1.90
2019-06-07T12:56:13.549Z,2.60
2019-06-07T13:01:09.561Z,1.90
2019-06-07T13:06:05.481Z,1.70
2019-06-07T13:11:15.694Z,2.07
2019-06-07T13:15:59.232Z,2.00
2019-06-07T13:20:55.734Z,2.00
2019-06-07T13:25:51.778Z,1.70
2019-06-07T13:30:47.692Z,1.93
2019-06-07T13:35:43.817Z,2.17
2019-06-07T13:40:39.812Z,2.20
2019-06-07T13:45:35.737Z,2.10
2019-06-07T13:50:31.697Z,1.90
2019-06-07T13:55:28.023Z,1.83
2019-06-07T14:00:24.877Z,2.07
2019-06-07T14:05:21.050Z,1.93
2019-06-07T14:10:17.096Z,1.87
2019-06-07T14:15:13.117Z,2.20
2019-06-07T14:20:10.700Z,2.07
2019-06-07T14:25:07.874Z,1.87
2019-06-07T14:30:06.207Z,2.13
2019-06-07T14:35:03.895Z,1.97
2019-06-07T14:39:59.930Z,1.97
2019-06-07T14:44:55.856Z,3.63
2019-06-07T14:49:51.782Z,1.87
2019-06-07T14:54:47.711Z,1.63
2019-06-07T14:59:43.632Z,2.00
2019-06-07T15:04:41.898Z,1.97
2019-06-07T15:09:39.378Z,2.00
2019-06-07T15:14:37.521Z,2.33
2019-06-07T15:19:36.408Z,2.20
2019-06-07T15:24:38.932Z,2.10
2019-06-07T15:29:36.307Z,2.00
2019-06-07T15:34:34.326Z,2.00
2019-06-07T15:39:32.555Z,1.80
2019-06-07T15:44:29.375Z,1.77
2019-06-07T15:49:26.447Z,1.97
2019-06-07T15:54:23.149Z,2.40
2019-06-07T15:59:19.178Z,1.90
2019-06-07T16:04:15.203Z,2.20
2019-06-07T16:09:12.017Z,2.30
2019-06-07T16:14:08.013Z,2.57
2019-06-07T16:19:06.512Z,2.60
2019-06-07T16:24:02.762Z,2.90
2019-06-07T16:28:58.657Z,3.00
2019-06-07T16:33:54.580Z,2.50
2019-06-07T16:38:51.210Z,2.73
2019-06-07T16:43:47.171Z,3.27
2019-06-07T16:48:44.942Z,2.90
2019-06-07T16:53:42.353Z,2.40
2019-06-07T16:58:38.476Z,2.40
2019-06-07T17:03:34.404Z,2.27
2019-06-07T17:08:30.327Z,2.63
2019-06-07T17:13:33.428Z,2.73
2019-06-07T17:18:24.069Z,2.60
2019-06-07T17:23:19.993Z,2.40
2019-06-07T17:28:16.043Z,6.93
2019-06-07T17:33:12.040Z,2.73
2019-06-07T17:38:07.970Z,2.90
2019-06-07T17:43:03.891Z,2.77
2019-06-07T17:47:59.813Z,3.40
2019-06-07T17:53:02.833Z,3.30
2019-06-07T17:57:58.911Z,3.33
2019-06-07T18:02:54.832Z,3.20
2019-06-07T18:07:51.854Z,3.57
2019-06-07T18:12:48.151Z,3.60
2019-06-07T18:17:44.539Z,5.30
2019-06-07T18:22:41.193Z,2.83
2019-06-07T18:27:37.123Z,4.80
2019-06-07T18:32:33.048Z,4.87
2019-06-07T18:37:29.002Z,6.80
2019-06-07T18:42:24.933Z,5.13
2019-06-07T18:47:20.854Z,5.57
2019-06-07T18:52:18.719Z,4.97
2019-06-07T18:57:15.439Z,3.73
2019-06-07T19:02:11.577Z,3.57
2019-06-07T19:07:11.235Z,2.33
2019-06-07T19:12:07.989Z,3.50
2019-06-07T19:17:04.925Z,2.60
2019-06-07T19:22:02.929Z,2.10
2019-06-07T19:27:03.606Z,1.80
2019-06-07T19:32:01.655Z,2.67
2019-06-07T19:37:02.009Z,1.80
2019-06-07T19:42:02.515Z,1.40
2019-06-07T19:47:00.493Z,1.80
2019-06-07T19:51:59.119Z,1.30
2019-06-07T19:56:55.739Z,1.07
2019-06-07T20:01:53.601Z,1.00
2019-06-07T20:06:50.532Z,1.10
2019-06-07T20:11:46.563Z,1.23
2019-06-07T20:16:42.489Z,1.57
2019-06-07T20:21:38.415Z,1.30
2019-06-07T20:26:34.438Z,1.57
2019-06-07T20:31:31.145Z,1.33
2019-06-07T20:36:27.078Z,1.47
2019-06-07T20:41:23.000Z,1.50
2019-06-07T20:46:18.950Z,1.57
2019-06-07T20:51:15.017Z,1.70
2019-06-07T20:56:10.978Z,1.10
2019-06-07T21:01:07.023Z,1.30
2019-06-07T21:06:05.451Z,1.67
2019-06-07T21:11:01.620Z,1.20
2019-06-07T21:15:57.843Z,1.17
2019-06-07T21:20:53.927Z,1.23
2019-06-07T21:25:50.107Z,1.30
2019-06-07T21:30:46.221Z,1.93
2019-06-07T21:35:42.243Z,2.17
2019-06-07T21:40:38.170Z,1.97
2019-06-07T21:45:34.131Z,3.20
2019-06-07T21:50:30.260Z,4.00
2019-06-07T21:55:26.206Z,3.40
2019-06-07T22:00:42.930Z,4.93
2019-06-07T22:05:38.848Z,1.10
2019-06-07T22:10:34.801Z,1.43
2019-06-07T22:15:35.385Z,1.03
2019-06-07T22:20:28.669Z,1.03
2019-06-07T22:25:24.756Z,0.90
2019-06-07T22:30:20.832Z,0.80
2019-06-07T22:35:16.766Z,0.60
2019-06-07T22:40:12.964Z,0.63
2019-06-07T22:45:10.858Z,0.67
2019-06-07T22:50:08.753Z,0.80
2019-06-07T22:55:07.707Z,0.70
2019-06-07T23:00:10.431Z,1.03
2019-06-07T23:05:04.848Z,0.80
2019-06-07T23:10:01.584Z,0.70
2019-06-07T23:14:57.529Z,0.60
2019-06-07T23:19:53.458Z,1.03
2019-06-07T23:24:49.389Z,0.77
2019-06-07T23:29:45.311Z,0.90
2019-06-07T23:34:41.234Z,0.90
2019-06-07T23:39:37.663Z,0.70
2019-06-07T23:44:34.099Z,0.90
2019-06-07T23:49:30.120Z,0.80
2019-06-07T23:54:26.051Z,0.53
2019-06-07T23:59:22.390Z,0.77
